createdAt,value
2018-12-09T00:00:35.829Z,0.00
2018-12-09T00:01:35.920Z,0.00
2018-12-09T00:02:35.796Z,0.00
2018-12-09T00:03:35.780Z,0.00
2018-12-09T00:04:35.765Z,0.00
2018-12-09T00:05:35.839Z,0.00
2018-12-09T00:06:35.742Z,0.00
2018-12-09T00:07:35.739Z,0.00
2018-12-09T00:08:35.727Z,0.00
2018-12-09T00:09:35.704Z,0.00
2018-12-09T00:10:35.704Z,0.00
2018-12-09T00:11:35.702Z,0.00
2018-12-09T00:12:35.681Z,0.00
2018-12-09T00:13:35.657Z,0.00
2018-12-09T00:14:35.651Z,0.00
2018-12-09T00:15:35.634Z,0.00
2018-12-09T00:16:35.658Z,0.00
2018-12-09T00:17:35.630Z,0.00
2018-12-09T00:18:35.616Z,0.00
2018-12-09T00:19:35.600Z,0.00
2018-12-09T00:20:35.603Z,0.00
2018-12-09T00:21:35.563Z,0.00
2018-12-09T00:22:35.555Z,0.00
2018-12-09T00:23:35.541Z,0.00
2018-12-09T00:24:35.527Z,0.00
2018-12-09T00:25:35.550Z,0.00
2018-12-09T00:26:35.504Z,0.00
2018-12-09T00:27:35.503Z,0.00
2018-12-09T00:28:35.495Z,0.00
2018-12-09T00:29:35.476Z,0.00
2018-12-09T00:30:35.461Z,0.00
2018-12-09T00:31:35.463Z,0.00
2018-12-09T00:32:35.437Z,0.00
2018-12-09T00:33:35.425Z,0.00
2018-12-09T00:34:35.412Z,0.00
2018-12-09T00:35:35.397Z,0.00
2018-12-09T00:36:35.436Z,0.00
2018-12-09T00:37:35.376Z,0.00
2018-12-09T00:38:35.364Z,0.00
2018-12-09T00:39:35.352Z,0.00
2018-12-09T00:40:35.345Z,0.00
2018-12-09T00:41:35.370Z,0.00
2018-12-09T00:42:43.245Z,0.00
2018-12-09T00:43:36.320Z,0.00
2018-12-09T00:44:35.320Z,0.00
2018-12-09T00:45:35.281Z,0.00
2018-12-09T00:46:35.271Z,0.00
2018-12-09T00:47:35.283Z,0.00
2018-12-09T00:48:35.250Z,0.00
2018-12-09T00:49:35.246Z,0.00
2018-12-09T00:50:35.222Z,0.00
2018-12-09T00:51:35.218Z,0.00
2018-12-09T00:52:35.244Z,0.00
2018-12-09T00:53:35.189Z,0.00
2018-12-09T00:54:35.177Z,0.00
2018-12-09T00:55:35.233Z,0.00
2018-12-09T00:56:35.161Z,0.00
2018-12-09T00:57:35.157Z,0.00
2018-12-09T00:58:35.131Z,0.00
2018-12-09T00:59:35.116Z,0.00
2018-12-09T01:00:35.115Z,0.00
2018-12-09T01:01:35.092Z,0.00
2018-12-09T01:02:35.102Z,0.00
2018-12-09T01:03:35.071Z,0.00
2018-12-09T01:04:35.057Z,0.00
2018-12-09T01:05:35.058Z,0.00
2018-12-09T01:06:35.033Z,0.00
2018-12-09T01:07:35.043Z,0.00
2018-12-09T01:08:35.013Z,0.00
2018-12-09T01:09:34.997Z,0.00
2018-12-09T01:10:34.989Z,0.00
2018-12-09T01:11:34.982Z,0.00
2018-12-09T01:12:35.038Z,0.00
2018-12-09T01:13:34.950Z,0.00
2018-12-09T01:14:34.942Z,0.00
2018-12-09T01:15:34.927Z,0.00
2018-12-09T01:16:34.925Z,0.00
2018-12-09T01:17:34.922Z,0.00
2018-12-09T01:18:34.895Z,0.00
2018-12-09T01:19:34.889Z,0.00
2018-12-09T01:20:34.867Z,0.00
2018-12-09T01:21:34.855Z,0.00
2018-12-09T01:22:34.874Z,0.00
2018-12-09T01:23:34.833Z,0.00
2018-12-09T01:24:34.820Z,0.00
2018-12-09T01:25:34.814Z,0.00
2018-12-09T01:26:34.800Z,0.00
2018-12-09T01:27:34.831Z,0.00
2018-12-09T01:28:34.811Z,0.00
2018-12-09T01:29:34.772Z,0.00
2018-12-09T01:30:34.750Z,0.00
2018-12-09T01:31:34.737Z,0.00
2018-12-09T01:32:34.729Z,0.00
2018-12-09T01:33:34.755Z,0.00
2018-12-09T01:34:34.706Z,0.00
2018-12-09T01:35:34.689Z,0.00
2018-12-09T01:36:34.682Z,0.00
2018-12-09T01:37:34.677Z,0.00
2018-12-09T01:38:34.678Z,0.00
2018-12-09T01:39:34.649Z,0.00
2018-12-09T01:40:34.629Z,0.00
2018-12-09T01:41:34.616Z,0.00
2018-12-09T01:42:34.605Z,0.00
2018-12-09T01:43:34.616Z,0.00
2018-12-09T01:44:34.605Z,0.00
2018-12-09T01:45:34.572Z,0.00
2018-12-09T01:46:34.561Z,0.00
2018-12-09T01:47:34.549Z,0.00
2018-12-09T01:48:34.548Z,0.00
2018-12-09T01:49:34.542Z,0.00
2018-12-09T01:50:34.513Z,0.00
2018-12-09T01:51:34.500Z,0.00
2018-12-09T01:52:34.490Z,0.00
2018-12-09T01:53:34.477Z,0.00
2018-12-09T01:54:34.498Z,0.00
2018-12-09T01:55:34.451Z,0.00
2018-12-09T01:56:34.441Z,0.00
2018-12-09T01:57:34.427Z,0.00
2018-12-09T01:58:34.419Z,0.00
2018-12-09T01:59:34.409Z,0.00
2018-12-09T02:00:34.440Z,0.00
2018-12-09T02:01:34.380Z,0.00
2018-12-09T02:02:34.369Z,0.00
2018-12-09T02:03:34.363Z,0.00
2018-12-09T02:04:34.348Z,0.00
2018-12-09T02:05:34.361Z,0.00
2018-12-09T02:06:34.321Z,0.00
2018-12-09T02:07:34.326Z,0.00
2018-12-09T02:08:34.298Z,0.00
2018-12-09T02:09:34.289Z,0.00
2018-12-09T02:10:34.308Z,0.00
2018-12-09T02:11:34.307Z,0.00
2018-12-09T02:12:34.274Z,0.00
2018-12-09T02:13:34.248Z,0.00
2018-12-09T02:14:34.226Z,0.00
2018-12-09T02:15:34.214Z,0.00
2018-12-09T02:16:34.222Z,0.00
2018-12-09T02:17:34.198Z,0.00
2018-12-09T02:18:34.185Z,0.00
2018-12-09T02:19:34.173Z,0.00
2018-12-09T02:20:34.159Z,0.00
2018-12-09T02:21:34.176Z,0.00
2018-12-09T02:22:34.161Z,0.00
2018-12-09T02:23:34.125Z,0.00
2018-12-09T02:24:34.113Z,0.00
2018-12-09T02:25:34.100Z,0.00
2018-12-09T02:26:34.110Z,0.00
2018-12-09T02:27:34.075Z,0.00
2018-12-09T02:28:34.066Z,0.00
2018-12-09T02:29:34.057Z,0.00
2018-12-09T02:30:34.094Z,0.00
2018-12-09T02:31:34.070Z,0.00
2018-12-09T02:32:34.019Z,0.00
2018-12-09T02:33:34.023Z,0.00
2018-12-09T02:34:33.998Z,0.00
2018-12-09T02:35:33.989Z,0.00
2018-12-09T02:36:33.993Z,0.00
2018-12-09T02:37:33.983Z,0.00
2018-12-09T02:38:33.947Z,0.00
2018-12-09T02:39:33.935Z,0.00
2018-12-09T02:40:33.939Z,0.00
2018-12-09T02:41:33.913Z,0.00
2018-12-09T02:42:33.928Z,0.00
2018-12-09T02:43:33.915Z,0.00
2018-12-09T02:44:34.012Z,0.00
2018-12-09T02:45:33.879Z,0.00
2018-12-09T02:46:33.855Z,0.00
2018-12-09T02:47:33.848Z,0.00
2018-12-09T02:48:33.854Z,0.00
2018-12-09T02:49:33.822Z,0.00
2018-12-09T02:50:33.815Z,0.00
2018-12-09T02:51:33.798Z,0.00
2018-12-09T02:52:33.804Z,0.00
2018-12-09T02:53:33.774Z,0.00
2018-12-09T02:54:33.759Z,0.00
2018-12-09T02:55:33.748Z,0.00
2018-12-09T02:56:33.737Z,0.00
2018-12-09T02:57:33.766Z,0.00
2018-12-09T02:58:33.715Z,0.00
2018-12-09T02:59:33.706Z,0.00
2018-12-09T03:00:33.709Z,0.00
2018-12-09T03:01:33.678Z,0.00
2018-12-09T03:02:33.673Z,0.00
2018-12-09T03:03:33.677Z,0.00
2018-12-09T03:04:33.650Z,0.00
2018-12-09T03:05:33.642Z,0.00
2018-12-09T03:06:33.625Z,0.00
2018-12-09T03:07:40.649Z,0.00
2018-12-09T03:08:33.617Z,0.00
2018-12-09T03:09:33.590Z,0.00
2018-12-09T03:10:33.575Z,0.00
2018-12-09T03:11:33.564Z,0.00
2018-12-09T03:12:33.553Z,0.00
2018-12-09T03:13:33.561Z,0.00
2018-12-09T03:14:33.530Z,0.00
2018-12-09T03:15:33.519Z,0.00
2018-12-09T03:16:33.506Z,0.00
2018-12-09T03:17:33.496Z,0.00
2018-12-09T03:18:33.508Z,0.00
2018-12-09T03:19:33.472Z,0.00
2018-12-09T03:20:33.463Z,0.00
2018-12-09T03:21:33.450Z,0.00
2018-12-09T03:22:33.439Z,0.00
2018-12-09T03:23:33.427Z,0.00
2018-12-09T03:24:33.439Z,0.00
2018-12-09T03:25:33.404Z,0.00
2018-12-09T03:26:33.390Z,0.00
2018-12-09T03:27:33.381Z,0.00
2018-12-09T03:28:33.367Z,0.00
2018-12-09T03:29:33.358Z,0.00
2018-12-09T03:30:33.367Z,0.00
2018-12-09T03:31:33.336Z,0.00
2018-12-09T03:32:33.430Z,0.00
2018-12-09T03:33:34.514Z,0.00
2018-12-09T03:34:33.299Z,0.00
2018-12-09T03:35:33.307Z,0.00
2018-12-09T03:36:33.275Z,0.00
2018-12-09T03:37:33.264Z,0.00
2018-12-09T03:38:33.254Z,0.00
2018-12-09T03:39:33.244Z,0.00
2018-12-09T03:40:33.253Z,0.00
2018-12-09T03:41:33.221Z,0.00
2018-12-09T03:42:33.207Z,0.00
2018-12-09T03:43:33.196Z,0.00
2018-12-09T03:44:33.186Z,0.00
2018-12-09T03:45:33.173Z,0.00
2018-12-09T03:46:33.181Z,0.00
2018-12-09T03:47:33.152Z,0.00
2018-12-09T03:48:33.138Z,0.00
2018-12-09T03:49:33.135Z,0.00
2018-12-09T03:50:33.119Z,0.00
2018-12-09T03:51:33.131Z,0.00
2018-12-09T03:52:33.095Z,0.00
2018-12-09T03:53:33.084Z,0.00
2018-12-09T03:54:33.073Z,0.00
2018-12-09T03:55:33.064Z,0.00
2018-12-09T03:56:33.052Z,0.00
2018-12-09T03:57:33.058Z,0.00
2018-12-09T03:58:33.027Z,0.00
2018-12-09T03:59:33.014Z,0.00
2018-12-09T04:00:33.003Z,0.00
2018-12-09T04:01:32.999Z,0.00
2018-12-09T04:02:33.024Z,0.00
2018-12-09T04:03:32.973Z,0.00
2018-12-09T04:04:32.957Z,0.00
2018-12-09T04:05:32.960Z,0.00
2018-12-09T04:06:32.936Z,0.00
2018-12-09T04:07:32.928Z,0.00
2018-12-09T04:08:32.937Z,0.00
2018-12-09T04:09:32.900Z,0.00
2018-12-09T04:10:32.890Z,0.00
2018-12-09T04:11:32.878Z,0.00
2018-12-09T04:12:32.889Z,0.00
2018-12-09T04:13:32.856Z,0.00
2018-12-09T04:14:32.878Z,0.00
2018-12-09T04:15:32.834Z,0.00
2018-12-09T04:16:32.822Z,0.00
2018-12-09T04:17:32.834Z,0.00
2018-12-09T04:18:32.799Z,0.00
2018-12-09T04:19:32.787Z,0.00
2018-12-09T04:20:32.777Z,0.00
2018-12-09T04:21:32.764Z,0.00
2018-12-09T04:22:32.756Z,0.00
2018-12-09T04:23:32.760Z,0.00
2018-12-09T04:24:32.728Z,0.00
2018-12-09T04:25:32.719Z,0.00
2018-12-09T04:26:32.708Z,0.00
2018-12-09T04:27:32.710Z,0.00
2018-12-09T04:28:32.702Z,0.00
2018-12-09T04:29:32.672Z,0.00
2018-12-09T04:30:32.663Z,0.00
2018-12-09T04:31:32.653Z,0.00
2018-12-09T04:32:32.638Z,0.00
2018-12-09T04:33:32.652Z,0.00
2018-12-09T04:34:32.617Z,0.00
2018-12-09T04:35:32.603Z,0.00
2018-12-09T04:36:32.594Z,0.00
2018-12-09T04:37:32.582Z,0.00
2018-12-09T04:38:32.571Z,0.00
2018-12-09T04:39:32.577Z,0.00
2018-12-09T04:40:32.546Z,0.00
2018-12-09T04:41:32.540Z,0.00
2018-12-09T04:42:32.527Z,0.00
2018-12-09T04:43:32.512Z,0.00
2018-12-09T04:44:32.543Z,0.00
2018-12-09T04:45:32.492Z,0.00
2018-12-09T04:46:32.479Z,0.00
2018-12-09T04:47:32.466Z,0.00
2018-12-09T04:48:32.454Z,0.00
2018-12-09T04:49:32.447Z,0.00
2018-12-09T04:50:32.453Z,0.00
2018-12-09T04:51:32.419Z,0.00
2018-12-09T04:52:32.408Z,0.00
2018-12-09T04:53:32.395Z,0.00
2018-12-09T04:54:32.384Z,0.00
2018-12-09T04:55:32.392Z,0.00
2018-12-09T04:56:32.360Z,0.00
2018-12-09T04:57:32.352Z,0.00
2018-12-09T04:58:32.339Z,0.00
2018-12-09T04:59:32.327Z,0.00
2018-12-09T05:00:32.336Z,0.00
2018-12-09T05:01:32.304Z,0.00
2018-12-09T05:02:32.293Z,0.00
2018-12-09T05:03:32.284Z,0.00
2018-12-09T05:04:32.267Z,0.00
2018-12-09T05:05:32.300Z,0.00
2018-12-09T05:06:32.245Z,0.00
2018-12-09T05:07:32.233Z,0.00
2018-12-09T05:08:32.224Z,0.00
2018-12-09T05:09:32.211Z,0.00
2018-12-09T05:10:32.199Z,0.00
2018-12-09T05:11:32.208Z,0.00
2018-12-09T05:12:32.181Z,0.00
2018-12-09T05:13:32.166Z,0.00
2018-12-09T05:14:32.154Z,0.00
2018-12-09T05:15:32.160Z,0.00
2018-12-09T05:16:32.132Z,0.00
2018-12-09T05:17:32.119Z,0.00
2018-12-09T05:18:32.108Z,0.00
2018-12-09T05:19:32.098Z,0.00
2018-12-09T05:20:32.105Z,0.00
2018-12-09T05:21:32.077Z,0.00
2018-12-09T05:22:32.065Z,0.00
2018-12-09T05:23:32.053Z,0.00
2018-12-09T05:24:32.042Z,0.00
2018-12-09T05:25:32.054Z,0.00
2018-12-09T05:26:32.018Z,0.00
2018-12-09T05:27:32.009Z,0.00
2018-12-09T05:28:31.997Z,0.00
2018-12-09T05:29:31.985Z,0.00
2018-12-09T05:30:31.975Z,0.00
2018-12-09T05:31:31.979Z,0.00
2018-12-09T05:32:31.952Z,0.00
2018-12-09T05:33:31.940Z,0.00
2018-12-09T05:34:31.926Z,0.00
2018-12-09T05:35:31.915Z,0.00
2018-12-09T05:36:31.949Z,0.00
2018-12-09T05:37:31.896Z,0.00
2018-12-09T05:38:31.881Z,0.00
2018-12-09T05:39:31.871Z,0.00
2018-12-09T05:40:31.859Z,0.00
2018-12-09T05:41:31.849Z,0.00
2018-12-09T05:42:31.854Z,0.00
2018-12-09T05:43:31.824Z,0.00
2018-12-09T05:44:31.815Z,0.00
2018-12-09T05:45:31.804Z,0.00
2018-12-09T05:46:31.789Z,0.00
2018-12-09T05:47:31.778Z,0.00
2018-12-09T05:48:31.787Z,0.00
2018-12-09T05:49:31.755Z,0.00
2018-12-09T05:50:31.744Z,0.00
2018-12-09T05:51:31.734Z,0.00
2018-12-09T05:52:31.721Z,0.00
2018-12-09T05:53:31.729Z,0.00
2018-12-09T05:54:31.707Z,0.00
2018-12-09T05:55:31.687Z,0.00
2018-12-09T05:56:31.675Z,0.00
2018-12-09T05:57:31.662Z,0.00
2018-12-09T05:58:31.675Z,0.00
2018-12-09T05:59:31.641Z,0.00
2018-12-09T06:00:31.630Z,0.00
2018-12-09T06:01:31.624Z,0.00
2018-12-09T06:02:31.607Z,0.00
2018-12-09T06:03:31.595Z,0.00
2018-12-09T06:04:31.608Z,0.00
2018-12-09T06:05:31.572Z,0.00
2018-12-09T06:06:31.560Z,0.00
2018-12-09T06:07:31.550Z,0.00
2018-12-09T06:08:31.536Z,0.00
2018-12-09T06:09:31.533Z,0.00
2018-12-09T06:10:31.536Z,0.00
2018-12-09T06:11:31.502Z,0.00
2018-12-09T06:12:31.493Z,0.00
2018-12-09T06:13:31.479Z,0.00
2018-12-09T06:14:31.471Z,0.00
2018-12-09T06:15:31.477Z,0.00
2018-12-09T06:16:31.445Z,0.00
2018-12-09T06:17:31.432Z,0.00
2018-12-09T06:18:31.421Z,0.00
2018-12-09T06:19:31.411Z,0.00
2018-12-09T06:20:31.415Z,0.00
2018-12-09T06:21:31.386Z,0.00
2018-12-09T06:22:31.374Z,0.00
2018-12-09T06:23:31.364Z,0.00
2018-12-09T06:24:31.349Z,0.00
2018-12-09T06:25:31.360Z,0.00
2018-12-09T06:26:31.327Z,0.00
2018-12-09T06:27:31.314Z,0.00
2018-12-09T06:28:31.306Z,0.00
2018-12-09T06:29:31.291Z,0.00
2018-12-09T06:30:31.279Z,0.00
2018-12-09T06:31:31.290Z,0.00
2018-12-09T06:32:31.254Z,0.00
2018-12-09T06:33:31.342Z,0.00
2018-12-09T06:34:31.234Z,0.00
2018-12-09T06:35:31.220Z,0.00
2018-12-09T06:36:31.206Z,0.00
2018-12-09T06:37:31.263Z,0.00
2018-12-09T06:38:31.187Z,0.00
2018-12-09T06:39:31.172Z,0.00
2018-12-09T06:40:31.160Z,0.00
2018-12-09T06:41:31.153Z,0.00
2018-12-09T06:42:31.158Z,0.00
2018-12-09T06:43:31.132Z,0.00
2018-12-09T06:44:31.115Z,0.00
2018-12-09T06:45:31.103Z,0.00
2018-12-09T06:46:31.091Z,0.00
2018-12-09T06:47:31.097Z,0.00
2018-12-09T06:48:31.067Z,0.00
2018-12-09T06:49:31.056Z,0.00
2018-12-09T06:50:31.045Z,0.00
2018-12-09T06:51:31.032Z,4.00
2018-12-09T06:52:31.039Z,4.00
2018-12-09T06:53:31.092Z,4.00
2018-12-09T06:54:30.997Z,4.00
2018-12-09T06:55:30.985Z,4.00
2018-12-09T06:56:30.975Z,4.00
2018-12-09T06:57:30.984Z,4.00
2018-12-09T06:58:30.951Z,4.00
2018-12-09T06:59:30.940Z,4.00
2018-12-09T07:00:30.929Z,4.00
2018-12-09T07:01:30.931Z,4.00
2018-12-09T07:02:30.946Z,4.00
2018-12-09T07:03:30.894Z,8.00
2018-12-09T07:04:30.882Z,8.00
2018-12-09T07:05:30.869Z,8.00
2018-12-09T07:06:30.863Z,8.00
2018-12-09T07:07:30.848Z,12.00
2018-12-09T07:08:30.859Z,16.00
2018-12-09T07:09:30.826Z,16.00
2018-12-09T07:10:30.814Z,24.00
2018-12-09T07:11:30.803Z,24.00
2018-12-09T07:12:30.792Z,24.00
2018-12-09T07:13:30.780Z,20.00
2018-12-09T07:14:30.791Z,20.00
2018-12-09T07:15:30.758Z,24.00
2018-12-09T07:16:30.746Z,24.00
2018-12-09T07:17:30.739Z,32.00
2018-12-09T07:18:30.725Z,52.00
2018-12-09T07:19:30.735Z,104.00
2018-12-09T07:20:30.701Z,96.00
2018-12-09T07:21:30.790Z,116.00
2018-12-09T07:22:30.677Z,92.00
2018-12-09T07:23:30.667Z,96.00
2018-12-09T07:24:30.680Z,84.00
2018-12-09T07:25:30.645Z,96.00
2018-12-09T07:26:30.635Z,96.00
2018-12-09T07:27:30.621Z,96.00
2018-12-09T07:28:30.609Z,120.00
2018-12-09T07:29:30.602Z,132.00
2018-12-09T07:30:30.604Z,116.00
2018-12-09T07:31:30.575Z,128.00
2018-12-09T07:32:30.565Z,172.00
2018-12-09T07:33:30.554Z,136.00
2018-12-09T07:34:30.542Z,144.00
2018-12-09T07:35:30.556Z,172.00
2018-12-09T07:36:30.519Z,148.00
2018-12-09T07:37:30.508Z,204.00
2018-12-09T07:38:30.496Z,184.00
2018-12-09T07:39:30.485Z,244.00
2018-12-09T07:40:30.473Z,272.00
2018-12-09T07:41:30.479Z,296.00
2018-12-09T07:42:30.449Z,280.00
2018-12-09T07:43:30.437Z,280.00
2018-12-09T07:44:30.425Z,400.00
2018-12-09T07:45:30.414Z,284.00
2018-12-09T07:46:30.424Z,320.00
2018-12-09T07:47:30.390Z,308.00
2018-12-09T07:48:30.379Z,292.00
2018-12-09T07:49:30.366Z,304.00
2018-12-09T07:50:30.356Z,264.00
2018-12-09T07:51:30.346Z,400.00
2018-12-09T07:52:30.354Z,464.00
2018-12-09T07:53:30.327Z,544.00
2018-12-09T07:54:30.305Z,496.00
2018-12-09T07:55:30.298Z,416.00
2018-12-09T07:56:30.287Z,600.00
2018-12-09T07:57:30.297Z,344.00
2018-12-09T07:58:30.263Z,372.00
2018-12-09T07:59:30.253Z,416.00
2018-12-09T08:00:30.240Z,444.00
2018-12-09T08:01:30.227Z,456.00
2018-12-09T08:02:30.217Z,376.00
2018-12-09T08:03:30.225Z,808.00
2018-12-09T08:04:30.193Z,1400.00
2018-12-09T08:05:30.181Z,1368.00
2018-12-09T08:06:30.170Z,1028.00
2018-12-09T08:07:30.163Z,920.00
2018-12-09T08:08:30.188Z,1092.00
2018-12-09T08:09:30.133Z,1520.00
2018-12-09T08:10:30.120Z,1652.00
2018-12-09T08:11:30.110Z,1684.00
2018-12-09T08:12:30.098Z,1624.00
2018-12-09T08:13:30.089Z,1408.00
2018-12-09T08:14:30.094Z,1280.00
2018-12-09T08:15:30.062Z,1108.00
2018-12-09T08:16:30.050Z,1176.00
2018-12-09T08:17:30.040Z,1056.00
2018-12-09T08:18:30.026Z,724.00
2018-12-09T08:19:30.035Z,844.00
2018-12-09T08:20:30.003Z,844.00
2018-12-09T08:21:29.992Z,948.00
2018-12-09T08:22:29.982Z,1228.00
2018-12-09T08:23:29.970Z,1020.00
2018-12-09T08:24:30.000Z,1200.00
2018-12-09T08:25:29.946Z,1460.00
2018-12-09T08:26:29.948Z,1164.00
2018-12-09T08:27:29.924Z,964.00
2018-12-09T08:28:29.913Z,908.00
2018-12-09T08:29:29.903Z,972.00
2018-12-09T08:30:29.908Z,1132.00
2018-12-09T08:31:29.877Z,1156.00
2018-12-09T08:32:29.864Z,936.00
2018-12-09T08:33:29.852Z,1004.00
2018-12-09T08:34:29.839Z,1356.00
2018-12-09T08:35:29.859Z,1556.00
2018-12-09T08:36:29.829Z,1596.00
2018-12-09T08:37:29.806Z,1204.00
2018-12-09T08:38:29.792Z,1716.00
2018-12-09T08:39:29.780Z,1676.00
2018-12-09T08:40:29.769Z,2468.00
2018-12-09T08:41:29.781Z,2360.00
2018-12-09T08:42:29.746Z,2300.00
2018-12-09T08:43:29.733Z,1684.00
2018-12-09T08:44:29.722Z,2352.00
2018-12-09T08:45:29.710Z,2088.00
2018-12-09T08:46:29.738Z,2356.00
2018-12-09T08:47:29.687Z,2964.00
2018-12-09T08:48:29.674Z,3044.00
2018-12-09T08:49:29.662Z,2596.00
2018-12-09T08:50:29.651Z,2860.00
2018-12-09T08:51:29.637Z,3496.00
2018-12-09T08:52:29.644Z,3400.00
2018-12-09T08:53:29.614Z,3576.00
2018-12-09T08:54:29.602Z,3808.00
2018-12-09T08:55:29.590Z,3336.00
2018-12-09T08:56:29.578Z,2604.00
2018-12-09T08:57:29.585Z,2460.00
2018-12-09T08:58:29.571Z,3204.00
2018-12-09T08:59:29.632Z,3292.00
2018-12-09T09:00:29.532Z,2272.00
2018-12-09T09:01:29.519Z,2700.00
2018-12-09T09:02:29.533Z,3076.00
2018-12-09T09:03:40.064Z,3820.00
2018-12-09T09:04:58.592Z,4664.00
2018-12-09T09:06:57.063Z,5256.00
2018-12-09T09:08:02.151Z,5320.00
2018-12-09T09:09:02.117Z,4840.00
2018-12-09T09:10:02.104Z,5548.00
2018-12-09T09:11:02.093Z,6488.00
2018-12-09T09:12:02.080Z,6652.00
2018-12-09T09:13:02.070Z,7476.00
2018-12-09T09:14:02.138Z,7588.00
2018-12-09T09:15:02.048Z,8464.00
2018-12-09T09:16:02.032Z,8368.00
2018-12-09T09:17:02.022Z,8568.00
2018-12-09T09:18:02.010Z,8348.00
2018-12-09T09:19:02.002Z,7192.00
2018-12-09T09:20:02.005Z,6044.00
2018-12-09T09:21:01.974Z,5320.00
2018-12-09T09:22:02.039Z,4920.00
2018-12-09T09:23:01.956Z,4388.00
2018-12-09T09:24:01.940Z,4200.00
2018-12-09T09:25:01.960Z,4264.00
2018-12-09T09:26:01.916Z,4424.00
2018-12-09T09:27:01.907Z,4236.00
2018-12-09T09:28:01.891Z,3792.00
2018-12-09T09:29:01.880Z,2824.00
2018-12-09T09:30:01.870Z,2000.00
2018-12-09T09:31:01.873Z,1408.00
2018-12-09T09:32:01.846Z,1164.00
2018-12-09T09:33:03.319Z,1244.00
2018-12-09T09:34:01.821Z,1028.00
2018-12-09T09:35:01.811Z,1028.00
2018-12-09T09:36:01.823Z,1176.00
2018-12-09T09:37:01.784Z,1344.00
2018-12-09T09:38:01.774Z,1260.00
2018-12-09T09:39:01.761Z,1324.00
2018-12-09T09:40:01.748Z,1568.00
2018-12-09T09:41:01.739Z,2184.00
2018-12-09T09:42:01.745Z,2388.00
2018-12-09T09:43:01.714Z,1956.00
2018-12-09T09:44:01.703Z,1704.00
2018-12-09T09:45:01.690Z,1496.00
2018-12-09T09:46:01.677Z,1400.00
2018-12-09T09:47:01.685Z,1400.00
2018-12-09T09:48:01.654Z,1464.00
2018-12-09T09:49:01.642Z,1288.00
2018-12-09T09:50:01.654Z,1276.00
2018-12-09T09:51:01.618Z,1252.00
2018-12-09T09:52:01.630Z,1216.00
2018-12-09T09:53:01.605Z,1160.00
2018-12-09T09:54:01.584Z,1212.00
2018-12-09T09:55:01.573Z,1196.00
2018-12-09T09:56:01.563Z,932.00
2018-12-09T09:57:01.548Z,920.00
2018-12-09T09:58:01.554Z,880.00
2018-12-09T09:59:01.524Z,992.00
2018-12-09T10:00:01.540Z,940.00
2018-12-09T10:01:01.501Z,824.00
2018-12-09T10:02:01.488Z,868.00
2018-12-09T10:03:01.501Z,1276.00
2018-12-09T10:04:01.466Z,1236.00
2018-12-09T10:05:01.456Z,1076.00
2018-12-09T10:06:01.442Z,944.00
2018-12-09T10:07:01.432Z,768.00
2018-12-09T10:08:01.419Z,744.00
2018-12-09T10:09:01.430Z,648.00
2018-12-09T10:10:01.397Z,612.00
2018-12-09T10:11:01.383Z,612.00
2018-12-09T10:12:01.371Z,576.00
2018-12-09T10:13:01.360Z,624.00
2018-12-09T10:14:01.368Z,800.00
2018-12-09T10:15:01.340Z,1192.00
2018-12-09T10:16:01.327Z,852.00
2018-12-09T10:17:01.315Z,764.00
2018-12-09T10:18:02.703Z,792.00
2018-12-09T10:19:01.336Z,664.00
2018-12-09T10:20:01.281Z,692.00
2018-12-09T10:21:01.273Z,772.00
2018-12-09T10:22:01.259Z,956.00
2018-12-09T10:23:01.251Z,1120.00
2018-12-09T10:24:01.239Z,1100.00
2018-12-09T10:25:01.252Z,788.00
2018-12-09T10:26:01.213Z,576.00
2018-12-09T10:27:01.201Z,520.00
2018-12-09T10:28:01.191Z,616.00
2018-12-09T10:29:01.180Z,852.00
2018-12-09T10:30:01.187Z,1024.00
2018-12-09T10:31:01.157Z,1392.00
2018-12-09T10:32:01.143Z,1848.00
2018-12-09T10:33:01.132Z,1832.00
2018-12-09T10:34:01.121Z,2744.00
2018-12-09T10:35:01.135Z,2788.00
2018-12-09T10:36:01.100Z,1864.00
2018-12-09T10:37:01.089Z,2336.00
2018-12-09T10:38:01.077Z,2648.00
2018-12-09T10:39:01.064Z,2732.00
2018-12-09T10:40:01.053Z,3080.00
2018-12-09T10:41:01.060Z,3584.00
2018-12-09T10:42:01.032Z,3624.00
2018-12-09T10:43:01.020Z,3400.00
2018-12-09T10:44:01.010Z,4228.00
2018-12-09T10:45:01.048Z,4756.00
2018-12-09T10:46:00.987Z,4656.00
2018-12-09T10:47:00.976Z,4832.00
2018-12-09T10:48:00.965Z,5408.00
2018-12-09T10:49:00.960Z,5472.00
2018-12-09T10:50:00.941Z,5896.00
2018-12-09T10:51:00.949Z,5668.00
2018-12-09T10:52:00.919Z,5368.00
2018-12-09T10:53:00.925Z,6100.00
2018-12-09T10:54:00.901Z,6672.00
2018-12-09T10:55:00.899Z,7544.00
2018-12-09T10:56:00.899Z,6552.00
2018-12-09T10:57:00.864Z,5456.00
2018-12-09T10:58:00.853Z,5072.00
2018-12-09T10:59:00.841Z,4508.00
2018-12-09T11:00:00.832Z,3764.00
2018-12-09T11:01:00.836Z,2984.00
2018-12-09T11:02:00.805Z,2392.00
2018-12-09T11:03:00.795Z,1868.00
2018-12-09T11:04:00.798Z,1468.00
2018-12-09T11:05:00.772Z,1260.00
2018-12-09T11:06:00.780Z,1132.00
2018-12-09T11:07:00.749Z,1244.00
2018-12-09T11:08:00.738Z,1460.00
2018-12-09T11:09:00.810Z,1392.00
2018-12-09T11:10:00.714Z,1244.00
2018-12-09T11:11:00.723Z,1128.00
2018-12-09T11:12:00.697Z,1248.00
2018-12-09T11:13:00.687Z,1336.00
2018-12-09T11:14:00.670Z,1384.00
2018-12-09T11:15:00.658Z,1404.00
2018-12-09T11:16:00.672Z,1452.00
2018-12-09T11:17:00.634Z,1492.00
2018-12-09T11:18:00.625Z,1528.00
2018-12-09T11:19:00.611Z,1436.00
2018-12-09T11:20:00.600Z,1288.00
2018-12-09T11:21:00.590Z,1216.00
2018-12-09T11:22:00.601Z,1164.00
2018-12-09T11:23:00.566Z,1172.00
2018-12-09T11:24:00.556Z,1108.00
2018-12-09T11:25:00.544Z,948.00
2018-12-09T11:26:00.533Z,920.00
2018-12-09T11:27:00.543Z,940.00
2018-12-09T11:28:00.512Z,924.00
2018-12-09T11:29:01.220Z,856.00
2018-12-09T11:30:00.488Z,748.00
2018-12-09T11:31:00.477Z,688.00
2018-12-09T11:32:00.489Z,592.00
2018-12-09T11:33:00.455Z,512.00
2018-12-09T11:34:00.444Z,472.00
2018-12-09T11:35:00.435Z,444.00
2018-12-09T11:36:00.424Z,528.00
2018-12-09T11:37:00.429Z,820.00
2018-12-09T11:38:00.398Z,1104.00
2018-12-09T11:39:00.388Z,1284.00
2018-12-09T11:40:00.376Z,1436.00
2018-12-09T11:41:00.365Z,1588.00
2018-12-09T11:42:00.380Z,1840.00
2018-12-09T11:43:00.345Z,1864.00
2018-12-09T11:44:00.332Z,1640.00
2018-12-09T11:45:00.320Z,1660.00
2018-12-09T11:46:00.312Z,1804.00
2018-12-09T11:47:00.324Z,1864.00
2018-12-09T11:48:00.286Z,1968.00
2018-12-09T11:49:00.277Z,2032.00
2018-12-09T11:50:00.265Z,1920.00
2018-12-09T11:51:00.258Z,1848.00
2018-12-09T11:52:00.244Z,1960.00
2018-12-09T11:53:00.258Z,2024.00
2018-12-09T11:54:00.218Z,1828.00
2018-12-09T11:55:00.209Z,1564.00
2018-12-09T11:56:00.195Z,1444.00
2018-12-09T11:57:00.186Z,1520.00
2018-12-09T11:58:00.184Z,1792.00
2018-12-09T11:59:00.198Z,2168.00
2018-12-09T12:00:00.153Z,2268.00
2018-12-09T12:01:00.140Z,2304.00
2018-12-09T12:02:00.130Z,2240.00
2018-12-09T12:03:00.117Z,2636.00
2018-12-09T12:04:00.126Z,3128.00
2018-12-09T12:05:00.093Z,3184.00
2018-12-09T12:06:00.081Z,3128.00
2018-12-09T12:07:00.071Z,3196.00
2018-12-09T12:08:00.058Z,3628.00
2018-12-09T12:09:00.085Z,4092.00
2018-12-09T12:10:00.035Z,4556.00
2018-12-09T12:11:00.023Z,4712.00
2018-12-09T12:12:00.011Z,4720.00
2018-12-09T12:12:59.999Z,5028.00
2018-12-09T12:13:59.988Z,5020.00
2018-12-09T12:15:00.017Z,4964.00
2018-12-09T12:15:59.963Z,4972.00
2018-12-09T12:16:59.951Z,5008.00
2018-12-09T12:17:59.942Z,4852.00
2018-12-09T12:18:59.929Z,4856.00
2018-12-09T12:19:59.917Z,5036.00
2018-12-09T12:20:59.923Z,4804.00
2018-12-09T12:21:59.893Z,4672.00
2018-12-09T12:22:59.881Z,3808.00
2018-12-09T12:23:59.870Z,3644.00
2018-12-09T12:24:59.859Z,3628.00
2018-12-09T12:25:59.870Z,4096.00
2018-12-09T12:26:59.833Z,4092.00
2018-12-09T12:27:59.822Z,3236.00
2018-12-09T12:28:59.809Z,2888.00
2018-12-09T12:29:59.799Z,2576.00
2018-12-09T12:30:59.789Z,2636.00
2018-12-09T12:31:59.798Z,2568.00
2018-12-09T12:32:59.765Z,2768.00
2018-12-09T12:33:59.752Z,4208.00
2018-12-09T12:34:59.740Z,5572.00
2018-12-09T12:35:59.729Z,5652.00
2018-12-09T12:36:59.761Z,7520.00
2018-12-09T12:37:59.727Z,6732.00
2018-12-09T12:38:59.694Z,6244.00
2018-12-09T12:39:59.681Z,6708.00
2018-12-09T12:40:59.667Z,6544.00
2018-12-09T12:41:59.656Z,5716.00
2018-12-09T12:42:59.670Z,5400.00
2018-12-09T12:43:59.632Z,5632.00
2018-12-09T12:44:59.625Z,5648.00
2018-12-09T12:45:59.611Z,5028.00
2018-12-09T12:46:59.619Z,5316.00
2018-12-09T12:47:59.584Z,6116.00
2018-12-09T12:48:59.590Z,6072.00
2018-12-09T12:49:59.561Z,5060.00